sensor_id;sensor_type;location;lat;lon;timestamp;temperature;humidity
5576;DHT22;2810;50.134;8.626;2022-10-15T00:02:15;14.50;99.90
5576;DHT22;2810;50.134;8.626;2022-10-15T00:04:41;14.50;99.90
5576;DHT22;2810;50.134;8.626;2022-10-15T00:07:06;14.50;99.90
5576;DHT22;2810;50.134;8.626;2022-10-15T00:09:31;14.50;99.90
5576;DHT22;2810;50.134;8.626;2022-10-15T00:11:57;14.50;99.90
5576;DHT22;2810;50.134;8.626;2022-10-15T00:14:22;14.50;99.90
5576;DHT22;2810;50.134;8.626;2022-10-15T00:16:48;14.50;99.90
5576;DHT22;2810;50.134;8.626;2022-10-15T00:19:13;14.50;99.90
5576;DHT22;2810;50.134;8.626;2022-10-15T00:21:39;14.50;99.90
5576;DHT22;2810;50.134;8.626;2022-10-15T00:24:04;14.50;99.90
5576;DHT22;2810;50.134;8.626;2022-10-15T00:26:30;14.50;99.90
5576;DHT22;2810;50.134;8.626;2022-10-15T00:28:57;14.60;99.90
5576;DHT22;2810;50.134;8.626;2022-10-15T00:31:23;14.50;99.90
5576;DHT22;2810;50.134;8.626;2022-10-15T00:33:50;14.50;99.90
5576;DHT22;2810;50.134;8.626;2022-10-15T00:36:17;14.50;99.90
5576;DHT22;2810;50.134;8.626;2022-10-15T00:38:43;14.50;99.90
5576;DHT22;2810;50.134;8.626;2022-10-15T00:41:13;14.50;99.90
5576;DHT22;2810;50.134;8.626;2022-10-15T00:43:49;14.50;99.90
5576;DHT22;2810;50.134;8.626;2022-10-15T00:47:02;14.50;99.90
5576;DHT22;2810;50.134;8.626;2022-10-15T00:51:30;14.60;99.90
5576;DHT22;2810;50.134;8.626;2022-10-15T00:53:57;14.60;99.90
5576;DHT22;2810;50.134;8.626;2022-10-15T00:56:23;14.60;99.90
5576;DHT22;2810;50.134;8.626;2022-10-15T00:58:50;14.50;99.90
5576;DHT22;2810;50.134;8.626;2022-10-15T01:01:17;14.50;99.90
5576;DHT22;2810;50.134;8.626;2022-10-15T01:03:42;14.50;99.90
5576;DHT22;2810;50.134;8.626;2022-10-15T01:06:08;14.60;99.90
5576;DHT22;2810;50.134;8.626;2022-10-15T01:08:33;14.50;99.90
5576;DHT22;2810;50.134;8.626;2022-10-15T01:11:15;14.60;99.90
5576;DHT22;2810;50.134;8.626;2022-10-15T01:13:53;14.60;99.90
5576;DHT22;2810;50.134;8.626;2022-10-15T01:18:57;14.60;99.90
5576;DHT22;2810;50.134;8.626;2022-10-15T01:21:33;14.60;99.90
5576;DHT22;2810;50.134;8.626;2022-10-15T01:29:11;14.60;99.90
5576;DHT22;2810;50.134;8.626;2022-10-15T01:31:43;14.60;99.90
5576;DHT22;2810;50.134;8.626;2022-10-15T01:34:16;14.60;99.90
5576;DHT22;2810;50.134;8.626;2022-10-15T01:36:56;14.60;99.90
5576;DHT22;2810;50.134;8.626;2022-10-15T01:41:53;14.60;99.90
5576;DHT22;2810;50.134;8.626;2022-10-15T01:44:24;14.60;99.90
5576;DHT22;2810;50.134;8.626;2022-10-15T01:46:54;14.60;99.90
5576;DHT22;2810;50.134;8.626;2022-10-15T01:49:23;14.60;99.90
5576;DHT22;2810;50.134;8.626;2022-10-15T01:51:50;14.60;99.90
5576;DHT22;2810;50.134;8.626;2022-10-15T01:54:18;14.60;99.90
5576;DHT22;2810;50.134;8.626;2022-10-15T01:56:45;14.60;99.90
5576;DHT22;2810;50.134;8.626;2022-10-15T01:59:32;14.60;99.90
5576;DHT22;2810;50.134;8.626;2022-10-15T02:01:57;14.60;99.90
5576;DHT22;2810;50.134;8.626;2022-10-15T02:04:27;14.60;99.90
5576;DHT22;2810;50.134;8.626;2022-10-15T02:06:58;15.00;99.90
5576;DHT22;2810;50.134;8.626;2022-10-15T02:09:36;14.60;99.90
5576;DHT22;2810;50.134;8.626;2022-10-15T02:14:32;14.60;99.90
5576;DHT22;2810;50.134;8.626;2022-10-15T02:17:08;14.60;99.90
5576;DHT22;2810;50.134;8.626;2022-10-15T02:19:38;14.60;99.90
5576;DHT22;2810;50.134;8.626;2022-10-15T02:22:05;14.60;99.90
5576;DHT22;2810;50.134;8.626;2022-10-15T02:24:34;14.60;99.90
5576;DHT22;2810;50.134;8.626;2022-10-15T02:27:01;14.60;99.90
5576;DHT22;2810;50.134;8.626;2022-10-15T02:29:28;14.60;99.90
5576;DHT22;2810;50.134;8.626;2022-10-15T02:31:55;14.60;99.90
5576;DHT22;2810;50.134;8.626;2022-10-15T02:34:24;14.60;99.90
5576;DHT22;2810;50.134;8.626;2022-10-15T02:36:49;14.60;99.90
5576;DHT22;2810;50.134;8.626;2022-10-15T02:39:20;14.60;99.90
5576;DHT22;2810;50.134;8.626;2022-10-15T02:41:46;14.60;99.90
5576;DHT22;2810;50.134;8.626;2022-10-15T02:44:12;14.80;99.90
5576;DHT22;2810;50.134;8.626;2022-10-15T02:46:38;14.60;99.90
5576;DHT22;2810;50.134;8.626;2022-10-15T02:49:03;14.70;99.90
5576;DHT22;2810;50.134;8.626;2022-10-15T02:51:32;14.60;99.90
5576;DHT22;2810;50.134;8.626;2022-10-15T02:53:58;14.60;99.90
5576;DHT22;2810;50.134;8.626;2022-10-15T02:56:24;14.60;99.90
5576;DHT22;2810;50.134;8.626;2022-10-15T02:58:50;14.60;99.90
5576;DHT22;2810;50.134;8.626;2022-10-15T03:01:16;14.70;99.90
5576;DHT22;2810;50.134;8.626;2022-10-15T03:03:41;14.70;99.90
5576;DHT22;2810;50.134;8.626;2022-10-15T03:06:07;14.70;99.90
5576;DHT22;2810;50.134;8.626;2022-10-15T03:08:32;14.70;99.90
5576;DHT22;2810;50.134;8.626;2022-10-15T03:11:01;14.60;99.90
5576;DHT22;2810;50.134;8.626;2022-10-15T03:13:27;14.60;99.90
5576;DHT22;2810;50.134;8.626;2022-10-15T03:15:52;14.60;99.90
5576;DHT22;2810;50.134;8.626;2022-10-15T03:18:18;14.60;99.90
5576;DHT22;2810;50.134;8.626;2022-10-15T03:20:43;14.70;99.90
5576;DHT22;2810;50.134;8.626;2022-10-15T03:23:09;14.70;99.90
5576;DHT22;2810;50.134;8.626;2022-10-15T03:25:34;14.70;99.90
5576;DHT22;2810;50.134;8.626;2022-10-15T03:28:00;14.60;99.90
5576;DHT22;2810;50.134;8.626;2022-10-15T03:30:25;14.60;99.90
5576;DHT22;2810;50.134;8.626;2022-10-15T03:32:51;14.60;99.90
5576;DHT22;2810;50.134;8.626;2022-10-15T03:35:16;14.60;99.90
5576;DHT22;2810;50.134;8.626;2022-10-15T03:37:42;14.60;99.90
5576;DHT22;2810;50.134;8.626;2022-10-15T03:40:07;14.80;99.90
5576;DHT22;2810;50.134;8.626;2022-10-15T03:42:33;14.60;99.90
5576;DHT22;2810;50.134;8.626;2022-10-15T03:44:59;14.70;99.90
5576;DHT22;2810;50.134;8.626;2022-10-15T03:47:24;14.70;99.90
5576;DHT22;2810;50.134;8.626;2022-10-15T03:49:49;14.70;99.90
5576;DHT22;2810;50.134;8.626;2022-10-15T03:52:15;14.60;99.90
5576;DHT22;2810;50.134;8.626;2022-10-15T03:54:40;14.70;99.90
5576;DHT22;2810;50.134;8.626;2022-10-15T03:57:06;14.70;99.90
5576;DHT22;2810;50.134;8.626;2022-10-15T03:59:31;14.70;99.90
5576;DHT22;2810;50.134;8.626;2022-10-15T04:01:57;14.60;99.90
5576;DHT22;2810;50.134;8.626;2022-10-15T04:04:22;14.70;99.90
5576;DHT22;2810;50.134;8.626;2022-10-15T04:06:48;14.60;99.90
5576;DHT22;2810;50.134;8.626;2022-10-15T04:09:13;14.60;99.90
5576;DHT22;2810;50.134;8.626;2022-10-15T04:11:39;14.70;99.90
5576;DHT22;2810;50.134;8.626;2022-10-15T04:14:05;14.70;99.90
5576;DHT22;2810;50.134;8.626;2022-10-15T04:16:31;14.70;99.90
5576;DHT22;2810;50.134;8.626;2022-10-15T04:18:56;14.70;99.90
5576;DHT22;2810;50.134;8.626;2022-10-15T04:21:23;14.70;99.90
5576;DHT22;2810;50.134;8.626;2022-10-15T04:23:49;14.70;99.90
5576;DHT22;2810;50.134;8.626;2022-10-15T04:26:14;14.70;99.90
5576;DHT22;2810;50.134;8.626;2022-10-15T04:28:40;14.70;99.90
5576;DHT22;2810;50.134;8.626;2022-10-15T04:31:05;14.70;99.90
5576;DHT22;2810;50.134;8.626;2022-10-15T04:33:31;14.70;99.90
5576;DHT22;2810;50.134;8.626;2022-10-15T04:36:06;14.70;99.90
5576;DHT22;2810;50.134;8.626;2022-10-15T04:38:32;14.70;99.90
5576;DHT22;2810;50.134;8.626;2022-10-15T04:40:59;14.70;99.90
5576;DHT22;2810;50.134;8.626;2022-10-15T04:43:25;14.70;99.90
5576;DHT22;2810;50.134;8.626;2022-10-15T04:45:53;14.70;99.90
5576;DHT22;2810;50.134;8.626;2022-10-15T04:48:19;15.00;99.90
5576;DHT22;2810;50.134;8.626;2022-10-15T04:50:44;14.70;99.90
5576;DHT22;2810;50.134;8.626;2022-10-15T04:53:10;14.70;99.90
5576;DHT22;2810;50.134;8.626;2022-10-15T04:55:35;14.70;99.90
5576;DHT22;2810;50.134;8.626;2022-10-15T04:58:01;14.60;99.90
5576;DHT22;2810;50.134;8.626;2022-10-15T05:00:26;14.60;99.90
5576;DHT22;2810;50.134;8.626;2022-10-15T05:02:51;14.70;99.90
5576;DHT22;2810;50.134;8.626;2022-10-15T05:05:17;14.70;99.90
5576;DHT22;2810;50.134;8.626;2022-10-15T05:07:42;14.70;99.90
5576;DHT22;2810;50.134;8.626;2022-10-15T05:10:08;14.70;99.90
5576;DHT22;2810;50.134;8.626;2022-10-15T05:12:33;14.70;99.90
5576;DHT22;2810;50.134;8.626;2022-10-15T05:14:59;14.60;99.90
5576;DHT22;2810;50.134;8.626;2022-10-15T05:17:24;14.60;99.90
5576;DHT22;2810;50.134;8.626;2022-10-15T05:19:50;14.60;99.90
5576;DHT22;2810;50.134;8.626;2022-10-15T05:22:15;14.60;99.90
5576;DHT22;2810;50.134;8.626;2022-10-15T05:24:41;14.60;99.90
5576;DHT22;2810;50.134;8.626;2022-10-15T05:27:06;14.60;99.90
5576;DHT22;2810;50.134;8.626;2022-10-15T05:29:31;14.60;99.90
5576;DHT22;2810;50.134;8.626;2022-10-15T05:31:57;14.60;99.90
5576;DHT22;2810;50.134;8.626;2022-10-15T05:34:23;14.60;99.90
5576;DHT22;2810;50.134;8.626;2022-10-15T05:36:50;14.60;99.90
5576;DHT22;2810;50.134;8.626;2022-10-15T05:39:16;14.60;99.90
5576;DHT22;2810;50.134;8.626;2022-10-15T05:41:42;14.60;99.90
5576;DHT22;2810;50.134;8.626;2022-10-15T05:44:07;14.60;99.90
5576;DHT22;2810;50.134;8.626;2022-10-15T05:46:33;14.60;99.90
5576;DHT22;2810;50.134;8.626;2022-10-15T05:48:58;14.60;99.90
5576;DHT22;2810;50.134;8.626;2022-10-15T05:51:24;14.60;99.90
5576;DHT22;2810;50.134;8.626;2022-10-15T05:53:53;14.60;99.90
5576;DHT22;2810;50.134;8.626;2022-10-15T05:56:19;14.60;99.90
5576;DHT22;2810;50.134;8.626;2022-10-15T05:58:44;14.60;99.90
5576;DHT22;2810;50.134;8.626;2022-10-15T06:01:10;14.60;99.90
5576;DHT22;2810;50.134;8.626;2022-10-15T06:03:36;14.60;99.90
5576;DHT22;2810;50.134;8.626;2022-10-15T06:06:02;14.60;99.90
5576;DHT22;2810;50.134;8.626;2022-10-15T06:08:28;14.60;99.90
5576;DHT22;2810;50.134;8.626;2022-10-15T06:10:54;14.60;99.90
5576;DHT22;2810;50.134;8.626;2022-10-15T06:13:20;14.60;99.90
5576;DHT22;2810;50.134;8.626;2022-10-15T06:15:46;14.70;99.90
5576;DHT22;2810;50.134;8.626;2022-10-15T06:18:12;14.60;99.90
5576;DHT22;2810;50.134;8.626;2022-10-15T06:20:43;14.60;99.90
5576;DHT22;2810;50.134;8.626;2022-10-15T06:23:09;14.60;99.90
5576;DHT22;2810;50.134;8.626;2022-10-15T06:25:35;14.60;99.90
5576;DHT22;2810;50.134;8.626;2022-10-15T06:28:02;14.50;99.90
5576;DHT22;2810;50.134;8.626;2022-10-15T06:30:28;14.50;99.90
5576;DHT22;2810;50.134;8.626;2022-10-15T06:32:54;14.50;99.90
5576;DHT22;2810;50.134;8.626;2022-10-15T06:35:20;14.50;99.90
5576;DHT22;2810;50.134;8.626;2022-10-15T06:37:46;14.50;99.90
5576;DHT22;2810;50.134;8.626;2022-10-15T06:40:12;14.50;99.90
5576;DHT22;2810;50.134;8.626;2022-10-15T06:42:37;14.50;99.90
5576;DHT22;2810;50.134;8.626;2022-10-15T06:45:04;14.50;99.90
5576;DHT22;2810;50.134;8.626;2022-10-15T06:47:30;14.50;99.90
5576;DHT22;2810;50.134;8.626;2022-10-15T06:49:55;14.50;99.90
5576;DHT22;2810;50.134;8.626;2022-10-15T06:52:21;14.60;99.90
5576;DHT22;2810;50.134;8.626;2022-10-15T06:54:46;14.50;99.90
5576;DHT22;2810;50.134;8.626;2022-10-15T06:57:11;14.50;99.90
5576;DHT22;2810;50.134;8.626;2022-10-15T06:59:38;14.50;99.90
5576;DHT22;2810;50.134;8.626;2022-10-15T07:02:03;14.50;99.90
5576;DHT22;2810;50.134;8.626;2022-10-15T07:04:29;14.40;99.90
5576;DHT22;2810;50.134;8.626;2022-10-15T07:06:54;14.80;99.90
5576;DHT22;2810;50.134;8.626;2022-10-15T07:09:20;14.40;99.90
5576;DHT22;2810;50.134;8.626;2022-10-15T07:11:45;14.40;99.90
5576;DHT22;2810;50.134;8.626;2022-10-15T07:14:10;14.40;99.90
5576;DHT22;2810;50.134;8.626;2022-10-15T07:16:36;14.60;99.90
5576;DHT22;2810;50.134;8.626;2022-10-15T07:19:03;14.50;99.90
5576;DHT22;2810;50.134;8.626;2022-10-15T07:21:29;14.70;99.90
5576;DHT22;2810;50.134;8.626;2022-10-15T07:23:54;14.50;99.90
5576;DHT22;2810;50.134;8.626;2022-10-15T07:26:20;14.50;99.90
5576;DHT22;2810;50.134;8.626;2022-10-15T07:28:45;14.50;99.90
5576;DHT22;2810;50.134;8.626;2022-10-15T07:31:10;14.50;99.90
5576;DHT22;2810;50.134;8.626;2022-10-15T07:33:36;14.60;99.90
5576;DHT22;2810;50.134;8.626;2022-10-15T07:36:02;14.60;99.90
5576;DHT22;2810;50.134;8.626;2022-10-15T07:38:28;14.60;99.90
5576;DHT22;2810;50.134;8.626;2022-10-15T07:40:58;14.60;99.90
5576;DHT22;2810;50.134;8.626;2022-10-15T07:43:23;14.60;99.90
5576;DHT22;2810;50.134;8.626;2022-10-15T07:45:49;14.60;99.90
5576;DHT22;2810;50.134;8.626;2022-10-15T07:48:14;14.90;99.90
5576;DHT22;2810;50.134;8.626;2022-10-15T07:50:40;14.80;99.90
5576;DHT22;2810;50.134;8.626;2022-10-15T07:53:05;14.80;99.90
5576;DHT22;2810;50.134;8.626;2022-10-15T07:55:31;15.00;99.90
5576;DHT22;2810;50.134;8.626;2022-10-15T07:57:56;14.60;99.90
5576;DHT22;2810;50.134;8.626;2022-10-15T08:00:22;15.00;99.90
5576;DHT22;2810;50.134;8.626;2022-10-15T08:02:48;15.00;99.90
5576;DHT22;2810;50.134;8.626;2022-10-15T08:05:13;15.00;99.90
5576;DHT22;2810;50.134;8.626;2022-10-15T08:07:38;15.00;99.90
5576;DHT22;2810;50.134;8.626;2022-10-15T08:10:06;15.10;99.90
5576;DHT22;2810;50.134;8.626;2022-10-15T08:12:32;15.20;99.90
5576;DHT22;2810;50.134;8.626;2022-10-15T08:14:57;15.20;99.90
5576;DHT22;2810;50.134;8.626;2022-10-15T08:17:23;15.30;99.90
5576;DHT22;2810;50.134;8.626;2022-10-15T08:19:48;15.30;99.90
5576;DHT22;2810;50.134;8.626;2022-10-15T08:22:14;15.40;99.90
5576;DHT22;2810;50.134;8.626;2022-10-15T08:24:39;15.40;99.90
5576;DHT22;2810;50.134;8.626;2022-10-15T08:27:04;15.50;99.90
5576;DHT22;2810;50.134;8.626;2022-10-15T08:29:30;15.50;99.90
5576;DHT22;2810;50.134;8.626;2022-10-15T08:31:55;15.50;99.90
5576;DHT22;2810;50.134;8.626;2022-10-15T08:34:21;15.60;99.90
5576;DHT22;2810;50.134;8.626;2022-10-15T08:36:46;15.60;99.90
5576;DHT22;2810;50.134;8.626;2022-10-15T08:39:12;15.70;99.90
5576;DHT22;2810;50.134;8.626;2022-10-15T08:44:19;15.90;99.90
5576;DHT22;2810;50.134;8.626;2022-10-15T08:46:46;15.90;99.90
5576;DHT22;2810;50.134;8.626;2022-10-15T08:49:15;16.00;99.90
5576;DHT22;2810;50.134;8.626;2022-10-15T08:51:45;16.10;99.90
5576;DHT22;2810;50.134;8.626;2022-10-15T08:54:13;16.10;99.90
5576;DHT22;2810;50.134;8.626;2022-10-15T08:56:41;16.00;99.90
5576;DHT22;2810;50.134;8.626;2022-10-15T08:59:26;16.00;99.90
5576;DHT22;2810;50.134;8.626;2022-10-15T09:02:03;16.00;99.90
5576;DHT22;2810;50.134;8.626;2022-10-15T09:04:40;16.10;99.90
5576;DHT22;2810;50.134;8.626;2022-10-15T09:08:12;16.10;99.90
5576;DHT22;2810;50.134;8.626;2022-10-15T09:10:26;16.10;99.90
5576;DHT22;2810;50.134;8.626;2022-10-15T09:13:01;16.10;99.90
5576;DHT22;2810;50.134;8.626;2022-10-15T09:15:27;16.20;99.90
5576;DHT22;2810;50.134;8.626;2022-10-15T09:17:56;15.80;99.90
5576;DHT22;2810;50.134;8.626;2022-10-15T09:20:25;16.10;99.90
5576;DHT22;2810;50.134;8.626;2022-10-15T09:22:54;16.10;99.90
5576;DHT22;2810;50.134;8.626;2022-10-15T09:25:20;16.00;99.90
5576;DHT22;2810;50.134;8.626;2022-10-15T09:27:47;16.10;99.90
5576;DHT22;2810;50.134;8.626;2022-10-15T09:30:19;16.20;99.90
5576;DHT22;2810;50.134;8.626;2022-10-15T09:32:48;16.40;99.90
5576;DHT22;2810;50.134;8.626;2022-10-15T09:35:19;16.70;99.90
5576;DHT22;2810;50.134;8.626;2022-10-15T09:37:51;16.90;99.90
5576;DHT22;2810;50.134;8.626;2022-10-15T09:42:48;17.10;99.90
5576;DHT22;2810;50.134;8.626;2022-10-15T09:45:14;17.20;99.90
5576;DHT22;2810;50.134;8.626;2022-10-15T09:47:40;17.00;99.90
5576;DHT22;2810;50.134;8.626;2022-10-15T09:50:07;16.90;99.90
5576;DHT22;2810;50.134;8.626;2022-10-15T09:52:49;16.80;99.90
5576;DHT22;2810;50.134;8.626;2022-10-15T09:58:00;16.70;99.90
5576;DHT22;2810;50.134;8.626;2022-10-15T10:00:42;16.60;99.90
5576;DHT22;2810;50.134;8.626;2022-10-15T10:03:13;16.70;99.90
5576;DHT22;2810;50.134;8.626;2022-10-15T10:05:39;16.70;99.90
5576;DHT22;2810;50.134;8.626;2022-10-15T10:08:27;16.90;99.90
5576;DHT22;2810;50.134;8.626;2022-10-15T10:10:55;17.70;99.90
5576;DHT22;2810;50.134;8.626;2022-10-15T10:13:31;18.40;99.90
5576;DHT22;2810;50.134;8.626;2022-10-15T10:16:02;18.90;99.90
5576;DHT22;2810;50.134;8.626;2022-10-15T10:18:28;19.10;99.90
5576;DHT22;2810;50.134;8.626;2022-10-15T10:20:56;19.10;99.90
5576;DHT22;2810;50.134;8.626;2022-10-15T10:23:30;18.80;99.90
5576;DHT22;2810;50.134;8.626;2022-10-15T10:25:59;18.50;99.90
5576;DHT22;2810;50.134;8.626;2022-10-15T10:28:36;18.30;99.90
5576;DHT22;2810;50.134;8.626;2022-10-15T10:31:05;18.00;99.90
5576;DHT22;2810;50.134;8.626;2022-10-15T10:33:36;17.80;99.90
5576;DHT22;2810;50.134;8.626;2022-10-15T10:36:06;17.70;99.90
5576;DHT22;2810;50.134;8.626;2022-10-15T10:38:37;17.60;99.90
5576;DHT22;2810;50.134;8.626;2022-10-15T10:41:07;17.40;99.90
5576;DHT22;2810;50.134;8.626;2022-10-15T10:43:40;17.30;99.90
5576;DHT22;2810;50.134;8.626;2022-10-15T10:46:17;17.20;99.90
5576;DHT22;2810;50.134;8.626;2022-10-15T10:48:44;17.20;99.90
5576;DHT22;2810;50.134;8.626;2022-10-15T10:51:14;17.00;99.90
5576;DHT22;2810;50.134;8.626;2022-10-15T10:53:47;17.00;99.90
5576;DHT22;2810;50.134;8.626;2022-10-15T10:56:13;16.90;99.90
5576;DHT22;2810;50.134;8.626;2022-10-15T10:58:40;17.10;99.90
5576;DHT22;2810;50.134;8.626;2022-10-15T11:01:09;16.80;99.90
5576;DHT22;2810;50.134;8.626;2022-10-15T11:03:36;16.80;99.90
5576;DHT22;2810;50.134;8.626;2022-10-15T11:06:14;16.70;99.90
5576;DHT22;2810;50.134;8.626;2022-10-15T11:08:51;16.70;99.90
5576;DHT22;2810;50.134;8.626;2022-10-15T11:11:20;16.70;99.90
5576;DHT22;2810;50.134;8.626;2022-10-15T11:16:22;16.60;99.90
5576;DHT22;2810;50.134;8.626;2022-10-15T11:18:54;16.70;99.90
5576;DHT22;2810;50.134;8.626;2022-10-15T11:24:19;16.70;99.90
5576;DHT22;2810;50.134;8.626;2022-10-15T11:34:24;17.20;99.90
5576;DHT22;2810;50.134;8.626;2022-10-15T11:39:26;17.70;99.90
5576;DHT22;2810;50.134;8.626;2022-10-15T11:42:09;18.00;99.90
5576;DHT22;2810;50.134;8.626;2022-10-15T11:52:23;18.10;99.90
5576;DHT22;2810;50.134;8.626;2022-10-15T11:57:19;17.80;99.90
5576;DHT22;2810;50.134;8.626;2022-10-15T11:59:58;17.60;99.90
5576;DHT22;2810;50.134;8.626;2022-10-15T12:04:57;17.50;99.90
5576;DHT22;2810;50.134;8.626;2022-10-15T12:07:29;17.50;99.90
5576;DHT22;2810;50.134;8.626;2022-10-15T12:09:56;17.50;99.90
5576;DHT22;2810;50.134;8.626;2022-10-15T12:15:06;17.50;99.90
5576;DHT22;2810;50.134;8.626;2022-10-15T12:17:41;17.40;99.90
5576;DHT22;2810;50.134;8.626;2022-10-15T12:20:13;17.40;99.90
5576;DHT22;2810;50.134;8.626;2022-10-15T12:22:43;17.40;99.90
5576;DHT22;2810;50.134;8.626;2022-10-15T12:30:38;17.30;99.90
5576;DHT22;2810;50.134;8.626;2022-10-15T12:33:20;17.30;99.90
5576;DHT22;2810;50.134;8.626;2022-10-15T12:35:52;17.30;99.90
5576;DHT22;2810;50.134;8.626;2022-10-15T12:38:19;17.20;99.90
5576;DHT22;2810;50.134;8.626;2022-10-15T12:40:46;17.40;99.90
5576;DHT22;2810;50.134;8.626;2022-10-15T12:43:19;17.20;99.90
5576;DHT22;2810;50.134;8.626;2022-10-15T12:45:53;17.10;99.90
5576;DHT22;2810;50.134;8.626;2022-10-15T12:48:29;17.10;99.90
5576;DHT22;2810;50.134;8.626;2022-10-15T12:53:43;17.10;99.90
5576;DHT22;2810;50.134;8.626;2022-10-15T12:58:38;17.10;99.90
5576;DHT22;2810;50.134;8.626;2022-10-15T13:01:49;17.10;99.90
5576;DHT22;2810;50.134;8.626;2022-10-15T13:08:44;17.10;99.90
5576;DHT22;2810;50.134;8.626;2022-10-15T13:11:18;17.00;99.90
5576;DHT22;2810;50.134;8.626;2022-10-15T13:13:44;17.00;99.90
5576;DHT22;2810;50.134;8.626;2022-10-15T13:16:10;17.00;99.90
5576;DHT22;2810;50.134;8.626;2022-10-15T13:18:37;17.00;99.90
5576;DHT22;2810;50.134;8.626;2022-10-15T13:21:03;17.00;99.90
5576;DHT22;2810;50.134;8.626;2022-10-15T13:23:30;17.00;99.90
5576;DHT22;2810;50.134;8.626;2022-10-15T13:26:12;16.90;99.90
5576;DHT22;2810;50.134;8.626;2022-10-15T13:28:38;16.90;99.90
5576;DHT22;2810;50.134;8.626;2022-10-15T13:31:14;16.90;99.90
5576;DHT22;2810;50.134;8.626;2022-10-15T13:33:41;16.90;99.90
5576;DHT22;2810;50.134;8.626;2022-10-15T13:36:07;16.90;99.90
5576;DHT22;2810;50.134;8.626;2022-10-15T13:38:34;16.90;99.90
5576;DHT22;2810;50.134;8.626;2022-10-15T13:41:01;16.90;99.90
5576;DHT22;2810;50.134;8.626;2022-10-15T13:43:27;17.00;99.90
5576;DHT22;2810;50.134;8.626;2022-10-15T13:45:56;16.90;99.90
5576;DHT22;2810;50.134;8.626;2022-10-15T13:48:24;17.00;99.90
5576;DHT22;2810;50.134;8.626;2022-10-15T13:50:53;17.00;99.90
5576;DHT22;2810;50.134;8.626;2022-10-15T13:55:49;17.00;99.90
5576;DHT22;2810;50.134;8.626;2022-10-15T13:58:19;17.00;99.90
5576;DHT22;2810;50.134;8.626;2022-10-15T14:00:58;17.00;99.90
5576;DHT22;2810;50.134;8.626;2022-10-15T14:03:28;17.10;99.90
5576;DHT22;2810;50.134;8.626;2022-10-15T14:05:55;17.00;99.90
5576;DHT22;2810;50.134;8.626;2022-10-15T14:08:25;17.00;99.90
5576;DHT22;2810;50.134;8.626;2022-10-15T14:10:52;17.00;99.90
5576;DHT22;2810;50.134;8.626;2022-10-15T14:13:18;17.10;99.90
5576;DHT22;2810;50.134;8.626;2022-10-15T14:15:55;17.10;99.90
5576;DHT22;2810;50.134;8.626;2022-10-15T14:18:33;17.10;99.90
5576;DHT22;2810;50.134;8.626;2022-10-15T14:20:59;17.10;99.90
5576;DHT22;2810;50.134;8.626;2022-10-15T14:23:25;17.10;99.90
5576;DHT22;2810;50.134;8.626;2022-10-15T14:25:52;17.10;99.90
5576;DHT22;2810;50.134;8.626;2022-10-15T14:28:19;17.10;99.90
5576;DHT22;2810;50.134;8.626;2022-10-15T14:30:45;17.10;99.90
5576;DHT22;2810;50.134;8.626;2022-10-15T14:33:27;17.30;99.90
5576;DHT22;2810;50.134;8.626;2022-10-15T14:36:04;17.20;99.90
5576;DHT22;2810;50.134;8.626;2022-10-15T14:38:30;17.20;99.90
5576;DHT22;2810;50.134;8.626;2022-10-15T14:40:59;17.10;99.90
5576;DHT22;2810;50.134;8.626;2022-10-15T14:43:28;17.50;99.90
5576;DHT22;2810;50.134;8.626;2022-10-15T14:45:57;17.20;99.90
5576;DHT22;2810;50.134;8.626;2022-10-15T14:50:49;17.20;99.90
5576;DHT22;2810;50.134;8.626;2022-10-15T14:53:18;17.20;99.90
5576;DHT22;2810;50.134;8.626;2022-10-15T14:55:48;17.20;99.90
5576;DHT22;2810;50.134;8.626;2022-10-15T14:58:15;17.10;99.90
5576;DHT22;2810;50.134;8.626;2022-10-15T15:00:43;17.20;99.90
5576;DHT22;2810;50.134;8.626;2022-10-15T15:03:17;17.20;99.90
5576;DHT22;2810;50.134;8.626;2022-10-15T15:05:44;17.20;99.90
5576;DHT22;2810;50.134;8.626;2022-10-15T15:08:10;17.20;99.90
5576;DHT22;2810;50.134;8.626;2022-10-15T15:10:35;17.20;99.90
5576;DHT22;2810;50.134;8.626;2022-10-15T15:13:01;17.20;99.90
5576;DHT22;2810;50.134;8.626;2022-10-15T15:15:26;17.10;99.90
5576;DHT22;2810;50.134;8.626;2022-10-15T15:17:52;17.10;99.90
5576;DHT22;2810;50.134;8.626;2022-10-15T15:20:17;17.10;99.90
5576;DHT22;2810;50.134;8.626;2022-10-15T15:22:45;17.10;99.90
5576;DHT22;2810;50.134;8.626;2022-10-15T15:25:17;17.20;99.90
5576;DHT22;2810;50.134;8.626;2022-10-15T15:27:44;17.30;99.90
5576;DHT22;2810;50.134;8.626;2022-10-15T15:30:13;17.30;99.90
5576;DHT22;2810;50.134;8.626;2022-10-15T15:32:39;17.30;99.90
5576;DHT22;2810;50.134;8.626;2022-10-15T15:35:08;17.20;99.90
5576;DHT22;2810;50.134;8.626;2022-10-15T15:37:39;17.20;99.90
5576;DHT22;2810;50.134;8.626;2022-10-15T15:40:04;17.20;99.90
5576;DHT22;2810;50.134;8.626;2022-10-15T15:42:30;17.20;99.90
5576;DHT22;2810;50.134;8.626;2022-10-15T15:44:55;17.20;99.90
5576;DHT22;2810;50.134;8.626;2022-10-15T15:47:21;17.20;99.90
5576;DHT22;2810;50.134;8.626;2022-10-15T15:49:46;17.20;99.90
5576;DHT22;2810;50.134;8.626;2022-10-15T15:52:12;17.20;99.90
5576;DHT22;2810;50.134;8.626;2022-10-15T15:54:39;17.30;99.90
5576;DHT22;2810;50.134;8.626;2022-10-15T15:57:04;17.30;99.90
5576;DHT22;2810;50.134;8.626;2022-10-15T15:59:30;17.20;99.90
5576;DHT22;2810;50.134;8.626;2022-10-15T16:01:55;17.20;99.90
5576;DHT22;2810;50.134;8.626;2022-10-15T16:04:21;17.20;99.90
5576;DHT22;2810;50.134;8.626;2022-10-15T16:06:46;17.10;99.90
5576;DHT22;2810;50.134;8.626;2022-10-15T16:09:14;17.10;99.90
5576;DHT22;2810;50.134;8.626;2022-10-15T16:11:39;17.10;99.90
5576;DHT22;2810;50.134;8.626;2022-10-15T16:14:05;17.00;99.90
5576;DHT22;2810;50.134;8.626;2022-10-15T16:16:30;17.00;99.90
5576;DHT22;2810;50.134;8.626;2022-10-15T16:18:56;17.00;99.90
5576;DHT22;2810;50.134;8.626;2022-10-15T16:21:22;17.00;99.90
5576;DHT22;2810;50.134;8.626;2022-10-15T16:23:48;17.00;99.90
5576;DHT22;2810;50.134;8.626;2022-10-15T16:26:13;17.10;99.90
5576;DHT22;2810;50.134;8.626;2022-10-15T16:28:39;17.00;99.90
5576;DHT22;2810;50.134;8.626;2022-10-15T16:31:20;17.00;99.90
5576;DHT22;2810;50.134;8.626;2022-10-15T16:33:46;17.00;99.90
5576;DHT22;2810;50.134;8.626;2022-10-15T16:36:11;17.20;99.90
5576;DHT22;2810;50.134;8.626;2022-10-15T16:38:38;17.00;99.90
5576;DHT22;2810;50.134;8.626;2022-10-15T16:41:03;17.00;99.90
5576;DHT22;2810;50.134;8.626;2022-10-15T16:43:29;17.10;99.90
5576;DHT22;2810;50.134;8.626;2022-10-15T16:45:55;17.10;99.90
5576;DHT22;2810;50.134;8.626;2022-10-15T16:48:21;17.10;99.90
5576;DHT22;2810;50.134;8.626;2022-10-15T16:50:46;17.10;99.90
5576;DHT22;2810;50.134;8.626;2022-10-15T16:53:12;17.10;99.90
5576;DHT22;2810;50.134;8.626;2022-10-15T16:55:37;17.10;99.90
5576;DHT22;2810;50.134;8.626;2022-10-15T16:58:03;17.10;99.90
5576;DHT22;2810;50.134;8.626;2022-10-15T17:00:28;17.00;99.90
5576;DHT22;2810;50.134;8.626;2022-10-15T17:02:53;17.00;99.90
5576;DHT22;2810;50.134;8.626;2022-10-15T17:05:19;17.00;99.90
5576;DHT22;2810;50.134;8.626;2022-10-15T17:07:44;17.00;99.90
5576;DHT22;2810;50.134;8.626;2022-10-15T17:10:10;17.00;99.90
5576;DHT22;2810;50.134;8.626;2022-10-15T17:12:35;16.90;99.90
5576;DHT22;2810;50.134;8.626;2022-10-15T17:15:01;16.90;99.90
5576;DHT22;2810;50.134;8.626;2022-10-15T17:17:26;16.90;99.90
5576;DHT22;2810;50.134;8.626;2022-10-15T17:19:52;16.90;99.90
5576;DHT22;2810;50.134;8.626;2022-10-15T17:22:17;16.80;99.90